Time;durP1;ratioP1;P1;durP2;ratioP2;P2;SDS_P1;SDS_P2;PMS_P1;PMS_P2;Temp;Humidity;BMP_temperature;BMP_pressure;BME280_temperature;BME280_humidity;BME280_pressure;Samples;Min_cycle;Max_cycle;Signal;HPM_P1;HPM_P2
2021/01/19 00:01:10;;;;;;;16.57;4.03;;;6.20;77.40;;;;;;4977387;28;20519;-77
2021/01/19 00:03:35;;;;;;;16.97;4.10;;;6.10;78.10;;;;;;4977294;28;20031;-77
2021/01/19 00:06:03;;;;;;;13.90;3.43;;;6.10;78.30;;;;;;4975930;28;20039;-77
2021/01/19 00:08:30;;;;;;;15.03;3.63;;;6.10;78.60;;;;;;4977190;28;20031;-77
2021/01/19 00:10:57;;;;;;;15.27;3.23;;;6.00;78.40;;;;;;4977729;28;20041;-77
2021/01/19 00:13:22;;;;;;;10.67;3.13;;;6.10;78.40;;;;;;4976037;28;20019;-76
2021/01/19 00:15:48;;;;;;;15.23;3.20;;;6.00;78.40;;;;;;4975954;28;20587;-77
2021/01/19 00:18:14;;;;;;;12.90;3.70;;;5.90;78.60;;;;;;4976224;28;20099;-77
2021/01/19 00:20:40;;;;;;;19.60;4.20;;;5.90;78.70;;;;;;4975745;28;20502;-77
2021/01/19 00:23:05;;;;;;;13.50;3.67;;;5.90;78.70;;;;;;4976908;28;20464;-77
2021/01/19 00:25:31;;;;;;;13.03;4.03;;;5.80;79.10;;;;;;4976920;28;20031;-77
2021/01/19 00:27:56;;;;;;;15.47;4.07;;;5.90;79.00;;;;;;4977204;28;20042;-77
2021/01/19 00:30:22;;;;;;;14.40;4.20;;;5.80;79.20;;;;;;4975647;28;20031;-77
2021/01/19 00:32:48;;;;;;;13.83;4.00;;;5.80;79.40;;;;;;4976885;28;20035;-77
2021/01/19 00:35:14;;;;;;;22.77;4.03;;;5.80;79.30;;;;;;4976789;28;20134;-77
2021/01/19 00:37:39;;;;;;;18.03;3.80;;;5.80;79.40;;;;;;4975486;28;20546;-77
2021/01/19 00:40:06;;;;;;;21.37;4.37;;;5.90;79.40;;;;;;4975603;28;20037;-77
2021/01/19 00:42:31;;;;;;;18.27;4.63;;;6.00;79.00;;;;;;4976640;28;20361;-77
2021/01/19 00:44:57;;;;;;;16.43;4.07;;;5.90;78.70;;;;;;4975583;28;20038;-77
2021/01/19 00:47:22;;;;;;;15.07;4.40;;;6.00;78.80;;;;;;4976314;28;20054;-77
2021/01/19 00:49:48;;;;;;;16.50;4.00;;;6.00;78.90;;;;;;4976379;28;20480;-77
2021/01/19 00:52:14;;;;;;;17.20;4.50;;;6.00;78.80;;;;;;4976445;28;20084;-77
2021/01/19 00:54:39;;;;;;;22.63;4.80;;;5.90;78.80;;;;;;4976588;28;20027;-77
2021/01/19 00:57:05;;;;;;;14.73;4.60;;;5.80;79.70;;;;;;4975059;28;20098;-77
2021/01/19 00:59:30;;;;;;;15.77;4.80;;;5.80;80.10;;;;;;4976432;28;20027;-77
2021/01/19 01:01:56;;;;;;;20.67;5.23;;;5.90;79.90;;;;;;4976403;28;20461;-77
2021/01/19 01:04:21;;;;;;;17.47;4.73;;;5.80;80.30;;;;;;4976019;28;20041;-77
2021/01/19 01:06:52;;;;;;;15.40;5.13;;;5.80;80.30;;;;;;4975828;28;20041;-77
2021/01/19 01:09:18;;;;;;;18.92;4.38;;;5.80;80.20;;;;;;4959840;28;20448;-77
2021/01/19 01:11:44;;;;;;;19.23;5.37;;;5.90;80.20;;;;;;4976008;28;20113;-77
2021/01/19 01:14:10;;;;;;;18.47;4.97;;;6.00;80.10;;;;;;4976060;28;20030;-77
2021/01/19 01:16:36;;;;;;;21.80;5.40;;;6.00;80.20;;;;;;4975850;28;20066;-77
2021/01/19 01:19:03;;;;;;;16.03;5.30;;;6.00;80.50;;;;;;4975906;28;20027;-77
2021/01/19 01:21:28;;;;;;;16.77;5.40;;;5.90;81.10;;;;;;4976201;28;20030;-77
2021/01/19 01:23:54;;;;;;;17.80;5.40;;;5.80;81.30;;;;;;4975926;28;20085;-77
2021/01/19 01:26:20;;;;;;;21.60;5.77;;;5.70;82.30;;;;;;4974467;28;20548;-77
2021/01/19 01:28:47;;;;;;;21.67;5.53;;;5.80;82.40;;;;;;4975805;28;20086;-77
2021/01/19 01:31:16;;;;;;;18.20;5.00;;;5.70;83.30;;;;;;4975869;28;20030;-76
2021/01/19 01:33:42;;;;;;;21.33;6.10;;;5.70;83.40;;;;;;4958610;28;20581;-78
2021/01/19 01:36:07;;;;;;;17.80;5.67;;;5.70;84.10;;;;;;4975475;28;20027;-77
2021/01/19 01:38:33;;;;;;;16.67;5.77;;;5.80;83.50;;;;;;4975464;28;20110;-77
2021/01/19 01:40:59;;;;;;;23.93;6.50;;;5.80;83.40;;;;;;4975603;28;20042;-77
2021/01/19 01:43:24;;;;;;;17.83;5.90;;;5.80;83.80;;;;;;4975573;28;20111;-77
2021/01/19 01:45:50;;;;;;;20.67;5.20;;;5.80;83.90;;;;;;4975438;28;20031;-77
2021/01/19 01:48:15;;;;;;;20.20;7.17;;;5.70;83.80;;;;;;4975318;28;20074;-77
2021/01/19 01:50:41;;;;;;;19.13;6.60;;;5.80;84.40;;;;;;4975465;28;20035;-77
2021/01/19 01:53:06;;;;;;;25.00;7.30;;;5.70;84.70;;;;;;4974025;28;20102;-77
2021/01/19 01:55:34;;;;;;;18.33;7.17;;;5.60;85.50;;;;;;4975186;28;20030;-77
2021/01/19 01:57:59;;;;;;;19.70;7.43;;;5.60;86.50;;;;;;4958299;28;20031;-77
2021/01/19 02:00:25;;;;;;;22.77;7.77;;;5.60;86.50;;;;;;4974102;28;20376;-77
2021/01/19 02:02:57;;;;;;;20.53;5.90;;;5.70;86.60;;;;;;4975123;28;20031;-77
2021/01/19 02:05:24;;;;;;;20.93;7.57;;;5.60;86.50;;;;;;4974951;28;20023;-77
2021/01/19 02:08:11;;;;;;;25.40;7.67;;;5.50;87.10;;;;;;4973671;28;20117;-77
2021/01/19 02:11:11;;;;;;;21.40;7.60;;;5.50;88.20;;;;;;4975319;28;20035;-77
2021/01/19 02:14:03;;;;;;;22.90;7.53;;;5.40;88.20;;;;;;4974920;28;20101;-77
2021/01/19 02:16:42;;;;;;;28.43;9.50;;;5.40;88.60;;;;;;4975172;28;20109;-77
2021/01/19 02:19:26;;;;;;;23.00;8.60;;;5.40;89.30;;;;;;4942064;28;20034;-77
2021/01/19 02:22:16;;;;;;;22.47;8.13;;;5.50;88.90;;;;;;4974761;28;20067;-77
2021/01/19 02:25:23;;;;;;;25.20;10.27;;;5.60;88.90;;;;;;4974686;28;20030;-77
2021/01/19 02:28:05;;;;;;;19.57;9.27;;;5.50;89.90;;;;;;4973838;28;20078;-77
2021/01/19 02:31:00;;;;;;;23.83;10.23;;;5.40;90.10;;;;;;4973816;28;20035;-77
2021/01/19 02:33:44;;;;;;;25.67;11.70;;;5.30;90.60;;;;;;4958050;28;20119;-77
2021/01/19 02:36:25;;;;;;;27.40;12.67;;;5.30;90.90;;;;;;4974726;28;20165;-77
2021/01/19 02:38:55;;;;;;;;;;;5.40;90.80;;;;;;4974486;28;20022;-77
2021/01/19 02:41:21;;;;;;;25.13;10.97;;;5.40;90.60;;;;;;4974157;28;19953;-77
2021/01/19 02:43:49;;;;;;;23.23;11.10;;;5.40;90.80;;;;;;4973411;28;20038;-77
2021/01/19 02:46:17;;;;;;;21.57;10.53;;;5.40;90.60;;;;;;4973657;28;20027;-77
2021/01/19 02:48:42;;;;;;;24.07;10.33;;;5.40;90.60;;;;;;4973324;28;20066;-78
2021/01/19 02:51:08;;;;;;;26.17;11.10;;;5.40;90.40;;;;;;4974296;28;20071;-77
2021/01/19 02:53:33;;;;;;;20.73;10.37;;;5.40;90.40;;;;;;4974404;28;20035;-77
2021/01/19 02:55:59;;;;;;;27.13;10.10;;;5.50;90.30;;;;;;4973325;28;20376;-77
2021/01/19 02:58:27;;;;;;;26.13;11.13;;;5.50;90.30;;;;;;4957403;28;20074;-77
2021/01/19 03:01:10;;;;;;;21.37;9.17;;;5.60;90.10;;;;;;4974421;28;20358;-77
2021/01/19 03:03:37;;;;;;;22.90;9.57;;;5.60;90.20;;;;;;4973372;28;20027;-77
2021/01/19 03:06:06;;;;;;;21.73;10.00;;;5.60;90.20;;;;;;4973355;28;20354;-77
2021/01/19 03:08:32;;;;;;;21.23;9.13;;;5.60;90.10;;;;;;4974453;28;20031;-76
2021/01/19 03:10:58;;;;;;;21.93;9.50;;;5.60;90.10;;;;;;4973436;28;20027;-77
2021/01/19 03:13:24;;;;;;;20.37;9.93;;;5.60;90.20;;;;;;4957215;28;20385;-77
2021/01/19 03:16:03;;;;;;;18.50;8.77;;;5.50;90.30;;;;;;4973248;28;20201;-77
2021/01/19 03:18:28;;;;;;;22.20;9.83;;;5.60;90.20;;;;;;4958970;28;20086;-77
2021/01/19 03:20:54;;;;;;;21.10;8.57;;;5.60;90.10;;;;;;4974153;28;20428;-77
2021/01/19 03:23:20;;;;;;;20.10;8.50;;;5.60;90.00;;;;;;4974334;28;20141;-77
2021/01/19 03:25:45;;;;;;;20.13;7.90;;;5.60;90.20;;;;;;4972992;28;20041;-77
2021/01/19 03:28:11;;;;;;;23.13;7.77;;;5.70;90.00;;;;;;4974003;28;20034;-77
2021/01/19 03:30:36;;;;;;;19.37;7.80;;;5.70;90.00;;;;;;4972961;28;20176;-77
2021/01/19 03:33:02;;;;;;;18.67;8.53;;;5.70;90.00;;;;;;4974325;28;20126;-77
2021/01/19 03:35:28;;;;;;;18.23;8.17;;;5.80;90.00;;;;;;4974527;28;20081;-77
2021/01/19 03:37:53;;;;;;;20.20;7.47;;;5.90;89.10;;;;;;4973003;28;20557;-75
2021/01/19 03:40:19;;;;;;;23.23;8.53;;;5.80;89.20;;;;;;4974253;28;20078;-76
2021/01/19 03:42:45;;;;;;;21.03;7.60;;;5.90;89.40;;;;;;4974059;28;20035;-76
2021/01/19 03:45:11;;;;;;;22.80;8.60;;;6.00;88.90;;;;;;4973873;28;20081;-76
2021/01/19 03:47:36;;;;;;;21.33;7.13;;;5.90;89.20;;;;;;4973985;28;20039;-76
2021/01/19 03:50:03;;;;;;;21.27;7.40;;;6.00;89.00;;;;;;4974375;28;20074;-75
2021/01/19 03:52:28;;;;;;;17.33;7.27;;;6.00;89.00;;;;;;4975177;28;20117;-75
2021/01/19 03:54:54;;;;;;;15.57;6.77;;;6.00;89.20;;;;;;4977737;28;20106;-75
2021/01/19 03:57:20;;;;;;;21.70;6.97;;;6.00;89.30;;;;;;4977510;28;20125;-75
2021/01/19 03:59:45;;;;;;;21.23;6.90;;;6.00;89.20;;;;;;4977036;28;20031;-75
2021/01/19 04:02:11;;;;;;;15.40;6.20;;;6.00;89.30;;;;;;4977449;28;20391;-75
2021/01/19 04:04:36;;;;;;;12.63;5.70;;;6.10;89.00;;;;;;4976204;28;20035;-75
2021/01/19 04:07:02;;;;;;;15.43;5.97;;;6.10;88.60;;;;;;4978087;28;20042;-75
2021/01/19 04:09:27;;;;;;;20.67;6.23;;;6.10;88.90;;;;;;4977624;28;20496;-75
2021/01/19 04:11:53;;;;;;;15.90;5.00;;;6.10;88.90;;;;;;4977347;28;20026;-75
2021/01/19 04:14:19;;;;;;;17.47;6.37;;;6.20;88.70;;;;;;4975821;28;20065;-76
2021/01/19 04:16:44;;;;;;;15.87;5.80;;;6.30;88.40;;;;;;4977456;28;20114;-76
2021/01/19 04:19:10;;;;;;;15.80;5.03;;;6.30;88.50;;;;;;4977135;28;20353;-75
2021/01/19 04:21:35;;;;;;;17.33;5.10;;;6.40;88.20;;;;;;4977204;28;20046;-75
2021/01/19 04:24:01;;;;;;;13.20;4.47;;;6.50;88.10;;;;;;4976834;28;20480;-76
2021/01/19 04:26:26;;;;;;;17.23;5.57;;;6.50;88.10;;;;;;4975610;28;20035;-76
2021/01/19 04:28:52;;;;;;;18.87;6.93;;;6.50;88.50;;;;;;4975560;28;20027;-75
2021/01/19 04:31:18;;;;;;;18.77;6.23;;;6.50;88.80;;;;;;4975592;28;20418;-76
2021/01/19 04:33:43;;;;;;;15.60;5.70;;;6.40;89.10;;;;;;4976836;28;20081;-75
2021/01/19 04:36:09;;;;;;;17.13;5.57;;;6.40;89.20;;;;;;4975479;28;20023;-75
2021/01/19 04:38:34;;;;;;;17.27;6.60;;;6.40;89.30;;;;;;4976725;28;20031;-75
2021/01/19 04:41:00;;;;;;;14.53;5.50;;;6.50;89.40;;;;;;4959463;28;20369;-75
2021/01/19 04:43:26;;;;;;;20.47;5.23;;;6.50;89.20;;;;;;4976399;28;20031;-76
2021/01/19 04:45:51;;;;;;;16.63;5.83;;;6.40;89.40;;;;;;4976498;28;20034;-76
2021/01/19 04:48:17;;;;;;;17.87;5.13;;;6.40;90.10;;;;;;4959296;28;20039;-76
2021/01/19 04:50:42;;;;;;;16.87;6.17;;;6.40;90.10;;;;;;4975511;28;20062;-76
2021/01/19 04:53:08;;;;;;;14.70;4.80;;;6.40;90.20;;;;;;4975097;28;20030;-75
2021/01/19 04:55:37;;;;;;;16.60;5.57;;;6.50;90.00;;;;;;4975153;28;20027;-76
2021/01/19 04:58:07;;;;;;;18.27;6.00;;;6.50;89.90;;;;;;4959220;28;20031;-75
2021/01/19 05:00:34;;;;;;;20.92;5.05;;;6.50;90.10;;;;;;4975328;28;20049;-75
2021/01/19 05:03:02;;;;;;;19.83;5.60;;;6.40;90.20;;;;;;4975817;28;20055;-76
2021/01/19 05:05:37;;;;;;;17.87;5.17;;;6.50;90.30;;;;;;4976242;28;20035;-76
2021/01/19 05:08:03;;;;;;;17.37;5.03;;;6.50;90.10;;;;;;4976041;28;20481;-76
2021/01/19 05:10:38;;;;;;;15.60;5.17;;;6.50;90.30;;;;;;4976131;28;20085;-75
2021/01/19 05:13:09;;;;;;;14.53;4.80;;;6.40;90.50;;;;;;4974962;28;20038;-76
2021/01/19 05:15:44;;;;;;;19.73;5.20;;;6.40;90.60;;;;;;4975096;28;20035;-76
2021/01/19 05:18:13;;;;;;;12.40;4.33;;;6.40;90.60;;;;;;4976344;28;20089;-76
2021/01/19 05:20:45;;;;;;;8.23;3.33;;;6.40;90.70;;;;;;4959111;28;20061;-76
2021/01/19 05:23:21;;;;;;;15.00;4.57;;;6.30;90.50;;;;;;4975958;28;20034;-77
2021/01/19 05:25:57;;;;;;;15.57;5.10;;;6.40;90.70;;;;;;4959929;28;20400;-77
2021/01/19 05:28:36;;;;;;;15.97;4.83;;;6.40;90.80;;;;;;4958816;28;20030;-77
2021/01/19 05:31:26;;;;;;;16.43;5.27;;;6.40;90.80;;;;;;4975590;28;20460;-77
2021/01/19 05:33:54;;;;;;;14.57;4.77;;;6.40;90.90;;;;;;4966684;28;20038;-76
2021/01/19 05:36:21;;;;;;;14.23;5.33;;;6.40;91.00;;;;;;4975419;28;20050;-77
2021/01/19 05:38:50;;;;;;;10.03;3.93;;;6.40;90.90;;;;;;4974707;28;20054;-77
2021/01/19 05:41:32;;;;;;;15.53;4.97;;;6.30;91.00;;;;;;4974423;28;20121;-77
2021/01/19 05:44:32;;;;;;;22.77;6.03;;;6.40;91.20;;;;;;4975418;28;20039;-77
2021/01/19 05:46:59;;;;;;;18.90;5.38;;;6.40;91.20;;;;;;4975459;28;20046;-76
2021/01/19 05:49:51;;;;;;;14.83;4.63;;;6.30;91.10;;;;;;4975677;28;20078;-76
2021/01/19 05:52:18;;;;;;;13.80;4.20;;;6.30;91.10;;;;;;4972760;28;20035;-76
2021/01/19 05:54:45;;;;;;;15.70;4.07;;;6.40;91.00;;;;;;4975181;28;20126;-76
2021/01/19 05:57:23;;;;;;;19.47;4.73;;;6.30;91.20;;;;;;4958169;28;20031;-75
2021/01/19 06:00:03;;;;;;;19.23;4.27;;;6.40;91.30;;;;;;4974069;28;20083;-76
2021/01/19 06:02:39;;;;;;;19.17;4.50;;;6.30;91.30;;;;;;4974202;28;20019;-76
2021/01/19 06:05:17;;;;;;;14.07;4.43;;;6.40;91.30;;;;;;4974021;28;20029;-76
2021/01/19 06:07:44;;;;;;;15.60;4.60;;;6.40;91.00;;;;;;4975298;28;20054;-76
2021/01/19 06:10:11;;;;;;;12.33;4.07;;;6.40;91.20;;;;;;4974002;28;20436;-76
2021/01/19 06:12:37;;;;;;;16.07;3.63;;;6.40;91.30;;;;;;4975141;28;20031;-76
2021/01/19 06:15:03;;;;;;;18.37;4.20;;;6.40;91.30;;;;;;4974237;28;20539;-76
2021/01/19 06:17:28;;;;;;;12.63;4.30;;;6.40;91.30;;;;;;4981061;28;20495;-76
2021/01/19 06:19:57;;;;;;;16.57;3.77;;;6.40;91.30;;;;;;5001122;28;20042;-75
2021/01/19 06:22:24;;;;;;;14.30;3.97;;;6.40;91.30;;;;;;5002383;28;20059;-76
2021/01/19 06:24:59;;;;;;;12.77;3.90;;;6.50;91.20;;;;;;4984332;28;20022;-76
2021/01/19 06:27:25;;;;;;;9.07;3.13;;;6.60;91.10;;;;;;4982270;28;20035;-76
2021/01/19 06:29:57;;;;;;;14.97;4.00;;;6.50;91.10;;;;;;4974678;28;20045;-76
2021/01/19 06:32:23;;;;;;;12.33;3.30;;;6.50;91.20;;;;;;4975046;28;20062;-76
2021/01/19 06:34:49;;;;;;;15.93;3.70;;;6.60;91.20;;;;;;4989620;28;20431;-76
2021/01/19 06:37:30;;;;;;;10.80;3.83;;;6.60;90.80;;;;;;4989765;28;20067;-76
2021/01/19 06:39:57;;;;;;;12.60;3.33;;;6.60;91.30;;;;;;4974768;28;20027;-77
2021/01/19 06:42:41;;;;;;;18.63;3.93;;;6.50;91.30;;;;;;4989514;28;20054;-76
2021/01/19 06:45:11;;;;;;;13.97;3.43;;;6.50;91.40;;;;;;4989627;28;20085;-76
2021/01/19 06:47:41;;;;;;;8.13;3.27;;;6.60;91.20;;;;;;4974636;28;20047;-76
2021/01/19 06:50:07;;;;;;;10.47;2.43;;;6.60;91.00;;;;;;4989537;28;20039;-75
2021/01/19 06:52:40;;;;;;;11.33;2.77;;;6.60;91.10;;;;;;4989474;28;20074;-75
2021/01/19 06:55:32;;;;;;;11.73;3.27;;;6.60;91.10;;;;;;4978954;28;20120;-76
2021/01/19 06:58:17;;;;;;;10.47;2.83;;;6.60;91.10;;;;;;4981252;28;20484;-76
2021/01/19 07:00:42;;;;;;;8.00;2.37;;;6.60;90.90;;;;;;4988289;28;20022;-77
2021/01/19 07:03:17;;;;;;;10.00;2.90;;;6.60;91.10;;;;;;4972952;28;20082;-76
2021/01/19 07:05:48;;;;;;;10.53;2.57;;;6.60;91.10;;;;;;4973487;28;20031;-76
2021/01/19 07:08:20;;;;;;;13.40;3.03;;;6.60;91.20;;;;;;4972147;28;20027;-76
2021/01/19 07:10:52;;;;;;;9.00;2.47;;;6.60;91.10;;;;;;4973719;28;20042;-76
2021/01/19 07:13:23;;;;;;;7.50;2.23;;;6.60;91.30;;;;;;4968690;28;20437;-82
2021/01/19 07:16:05;;;;;;;12.10;2.60;;;6.70;90.90;;;;;;4985441;28;20019;-76
2021/01/19 07:18:45;;;;;;;10.97;2.60;;;6.70;91.10;;;;;;4975539;28;20026;-76
2021/01/19 07:21:14;;;;;;;7.78;2.17;;;6.70;91.00;;;;;;4992893;28;20046;-76
2021/01/19 07:23:46;;;;;;;10.20;2.23;;;6.70;91.20;;;;;;4990762;28;20024;-76
2021/01/19 07:26:16;;;;;;;8.80;2.53;;;6.70;91.20;;;;;;4993672;28;20110;-76
2021/01/19 07:28:41;;;;;;;5.67;1.63;;;6.70;91.40;;;;;;4981269;28;20033;-76
2021/01/19 07:31:07;;;;;;;7.67;2.60;;;6.70;91.20;;;;;;4984413;28;20105;-76
2021/01/19 07:33:33;;;;;;;8.43;2.43;;;6.80;91.30;;;;;;4991975;28;20033;-76
2021/01/19 07:35:58;;;;;;;7.20;2.23;;;6.80;91.20;;;;;;4959919;28;20141;-76
2021/01/19 07:38:25;;;;;;;9.93;2.30;;;6.80;91.00;;;;;;4975980;28;20039;-76
2021/01/19 07:40:51;;;;;;;5.80;2.13;;;6.80;91.10;;;;;;4991297;28;20031;-77
2021/01/19 07:43:17;;;;;;;8.17;2.17;;;6.80;91.20;;;;;;4982887;28;20030;-77
2021/01/19 07:45:52;;;;;;;13.07;2.77;;;6.80;91.00;;;;;;4975898;28;20027;-76
2021/01/19 07:48:28;;;;;;;9.97;2.30;;;6.80;91.20;;;;;;4976975;28;20027;-76
2021/01/19 07:50:53;;;;;;;5.53;1.57;;;6.80;91.10;;;;;;4961892;28;20046;-76
2021/01/19 07:53:19;;;;;;;9.13;2.03;;;6.90;91.20;;;;;;4996664;28;20464;-76
2021/01/19 07:55:46;;;;;;;6.43;2.10;;;6.90;91.30;;;;;;4996235;28;20038;-76
2021/01/19 07:58:19;;;;;;;8.20;1.97;;;6.90;91.20;;;;;;4986865;28;20078;-76
2021/01/19 08:01:03;;;;;;;11.07;2.20;;;6.90;91.30;;;;;;4957996;28;20027;-76
2021/01/19 08:03:29;;;;;;;6.37;2.47;;;7.00;91.30;;;;;;4975162;28;20089;-77
2021/01/19 08:05:55;;;;;;;5.70;2.20;;;7.00;91.10;;;;;;4959476;28;20027;-76
2021/01/19 08:08:20;;;;;;;8.17;2.20;;;7.10;91.00;;;;;;4976604;28;20045;-78
2021/01/19 08:10:56;;;;;;;4.10;1.90;;;7.10;91.10;;;;;;4976707;28;20550;-76
2021/01/19 08:13:22;;;;;;;7.20;1.63;;;7.20;91.00;;;;;;4974362;28;20023;-82
2021/01/19 08:16:01;;;;;;;4.63;2.13;;;7.20;91.10;;;;;;4976063;28;20408;-77
2021/01/19 08:18:38;;;;;;;6.10;2.13;;;7.20;91.20;;;;;;4976672;28;20026;-77
2021/01/19 08:21:04;;;;;;;8.27;2.03;;;7.20;91.10;;;;;;4975325;28;20030;-77
2021/01/19 08:23:32;;;;;;;4.40;2.13;;;7.30;91.20;;;;;;4986795;28;20043;-76
2021/01/19 08:26:05;;;;;;;9.40;2.23;;;7.30;91.00;;;;;;4987551;28;20026;-76
2021/01/19 08:28:31;;;;;;;4.43;1.67;;;7.40;91.00;;;;;;4996851;28;21315;-76
2021/01/19 08:30:57;;;;;;;7.28;2.05;;;7.40;90.80;;;;;;4993136;28;20028;-77
2021/01/19 08:33:23;;;;;;;4.47;2.20;;;7.50;90.80;;;;;;4992450;28;20026;-76
2021/01/19 08:35:49;;;;;;;4.80;2.07;;;7.50;90.80;;;;;;4978239;28;20499;-76
2021/01/19 08:38:14;;;;;;;4.83;2.20;;;7.50;90.80;;;;;;4977511;28;20030;-76
2021/01/19 08:40:40;;;;;;;4.37;2.73;;;7.50;91.00;;;;;;4978141;28;20023;-76
2021/01/19 08:43:06;;;;;;;4.57;2.00;;;7.50;91.00;;;;;;4982038;28;20039;-75
2021/01/19 08:45:33;;;;;;;7.70;2.40;;;7.60;90.90;;;;;;4975707;28;20099;-76
2021/01/19 08:48:00;;;;;;;6.53;2.45;;;7.70;90.90;;;;;;4983174;28;20080;-75
2021/01/19 08:50:26;;;;;;;3.03;2.47;;;7.70;90.80;;;;;;4994111;28;20117;-75
2021/01/19 08:52:52;;;;;;;5.53;3.00;;;7.70;90.90;;;;;;4994188;28;20085;-76
2021/01/19 08:55:21;;;;;;;4.73;2.90;;;7.70;91.10;;;;;;4993082;28;20499;-82
2021/01/19 08:57:50;;;;;;;7.27;3.03;;;7.70;91.00;;;;;;4971704;28;20619;-76
2021/01/19 09:00:25;;;;;;;6.60;2.80;;;7.70;91.00;;;;;;4973187;28;20029;-76
2021/01/19 09:02:55;;;;;;;6.33;3.47;;;7.70;91.20;;;;;;4991861;28;20046;-76
2021/01/19 09:05:29;;;;;;;5.10;3.47;;;7.70;91.30;;;;;;4973408;28;20033;-77
2021/01/19 09:07:55;;;;;;;4.83;3.83;;;7.70;91.20;;;;;;4973518;28;20035;-77
2021/01/19 09:10:30;;;;;;;7.65;3.83;;;7.70;91.50;;;;;;4956048;28;20031;-76
2021/01/19 09:12:56;;;;;;;7.32;4.55;;;7.70;91.40;;;;;;4973157;28;20034;-77
2021/01/19 09:15:22;;;;;;;7.13;3.92;;;7.80;91.30;;;;;;4972007;28;20093;-77
2021/01/19 09:17:55;;;;;;;6.00;4.40;;;7.80;91.40;;;;;;4971894;28;20477;-76
2021/01/19 09:20:22;;;;;;;5.60;4.83;;;7.70;91.70;;;;;;4971777;28;20395;-78
2021/01/19 09:22:47;;;;;;;5.63;4.80;;;7.70;91.70;;;;;;4971965;28;20063;-78
2021/01/19 09:25:13;;;;;;;5.00;3.88;;;7.70;91.60;;;;;;4973605;28;20058;-78
2021/01/19 09:27:40;;;;;;;10.65;5.63;;;7.70;91.60;;;;;;4967982;28;20419;-77
2021/01/19 09:30:13;;;;;;;9.83;6.27;;;7.70;91.90;;;;;;4958029;28;20023;-76
2021/01/19 09:32:43;;;;;;;11.70;5.67;;;7.70;91.80;;;;;;4973549;28;20451;-76
2021/01/19 09:35:09;;;;;;;7.10;6.00;;;7.80;91.80;;;;;;4974958;28;20445;-76
2021/01/19 09:37:35;;;;;;;8.35;6.70;;;7.90;91.70;;;;;;4975092;28;20456;-77
2021/01/19 09:40:01;;;;;;;8.73;6.75;;;7.90;91.70;;;;;;4976687;28;20030;-76
2021/01/19 09:42:26;;;;;;;9.90;6.93;;;7.90;91.70;;;;;;4979510;28;20084;-76
2021/01/19 09:44:52;;;;;;;6.85;5.55;;;7.90;91.70;;;;;;4973166;28;20408;-77
2021/01/19 09:47:20;;;;;;;9.27;6.85;;;8.00;91.70;;;;;;4974392;28;20041;-76
2021/01/19 09:49:46;;;;;;;10.15;6.03;;;7.90;91.80;;;;;;4956462;28;20553;-76
2021/01/19 09:52:15;;;;;;;9.32;7.57;;;8.00;91.70;;;;;;4974984;28;20084;-76
2021/01/19 09:54:40;;;;;;;9.95;7.20;;;8.10;91.70;;;;;;4974786;28;20031;-76
2021/01/19 09:57:08;;;;;;;7.18;6.47;;;8.10;91.60;;;;;;4973444;28;20042;-76
2021/01/19 09:59:34;;;;;;;7.20;5.97;;;8.00;91.70;;;;;;4976994;28;20031;-76
2021/01/19 10:02:00;;;;;;;5.30;4.70;;;8.10;91.70;;;;;;4992110;28;20083;-76
2021/01/19 10:04:29;;;;;;;12.13;6.93;;;8.10;91.70;;;;;;4993543;28;20031;-76
2021/01/19 10:07:05;;;;;;;8.32;6.88;;;8.10;91.60;;;;;;4994011;28;20176;-76
2021/01/19 10:09:31;;;;;;;9.45;7.90;;;8.20;91.60;;;;;;4993599;28;20038;-76
2021/01/19 10:12:00;;;;;;;10.75;7.05;;;8.20;91.50;;;;;;4991976;28;20041;-76
2021/01/19 10:14:36;;;;;;;10.93;7.55;;;8.30;91.50;;;;;;4993583;28;20465;-76
2021/01/19 10:17:02;;;;;;;9.10;7.25;;;8.30;91.40;;;;;;4992521;28;20026;-76
2021/01/19 10:19:29;;;;;;;9.93;6.68;;;8.30;91.50;;;;;;4987921;28;20035;-76
2021/01/19 10:21:56;;;;;;;9.15;7.45;;;8.30;91.50;;;;;;4974368;28;20121;-75
2021/01/19 10:24:22;;;;;;;10.43;7.75;;;8.30;91.70;;;;;;4973294;28;20027;-77
2021/01/19 10:27:07;;;;;;;8.55;7.28;;;8.30;91.70;;;;;;4973114;28;20431;-76
2021/01/19 10:29:43;;;;;;;7.88;6.90;;;8.40;91.70;;;;;;4970696;28;20034;-76
2021/01/19 10:32:12;;;;;;;9.23;8.13;;;8.40;91.60;;;;;;4973007;28;20035;-75
2021/01/19 10:34:43;;;;;;;8.10;7.40;;;8.50;91.70;;;;;;4977298;28;20045;-75
2021/01/19 10:37:10;;;;;;;11.63;6.75;;;8.50;91.70;;;;;;4984799;28;20154;-75
2021/01/19 10:39:48;;;;;;;8.27;7.47;;;8.50;91.70;;;;;;4977190;28;20082;-75
2021/01/19 10:42:28;;;;;;;8.10;7.30;;;8.60;91.80;;;;;;4972988;28;20034;-77
2021/01/19 10:44:55;;;;;;;7.80;7.00;;;8.50;92.10;;;;;;4973754;28;20472;-76
2021/01/19 10:47:20;;;;;;;10.40;9.40;;;8.60;92.20;;;;;;4973980;28;20041;-77
2021/01/19 10:49:46;;;;;;;9.15;7.35;;;8.60;92.20;;;;;;4980931;28;20030;-76
2021/01/19 10:52:12;;;;;;;10.98;8.50;;;8.70;92.10;;;;;;4993222;28;20371;-75
2021/01/19 10:54:38;;;;;;;11.23;8.40;;;8.70;92.10;;;;;;4993521;28;20119;-76
2021/01/19 10:57:05;;;;;;;10.30;9.30;;;8.80;92.10;;;;;;4992788;28;20115;-75
2021/01/19 10:59:30;;;;;;;10.23;9.18;;;8.90;92.10;;;;;;4982388;28;20026;-77
2021/01/19 11:01:56;;;;;;;8.13;7.43;;;8.90;92.10;;;;;;4995631;28;20031;-77
2021/01/19 11:04:22;;;;;;;9.02;8.18;;;8.90;92.20;;;;;;4997682;28;20045;-78
2021/01/19 11:06:47;;;;;;;8.88;6.97;;;9.00;92.20;;;;;;4997367;28;20169;-78
2021/01/19 11:09:14;;;;;;;8.68;7.80;;;9.10;92.20;;;;;;4997531;28;20030;-79
2021/01/19 11:11:40;;;;;;;11.82;8.13;;;9.10;92.20;;;;;;4996703;28;20031;-75
2021/01/19 11:14:05;;;;;;;8.43;7.70;;;9.10;92.30;;;;;;4997614;28;20060;-76
2021/01/19 11:16:32;;;;;;;10.90;9.05;;;9.20;92.20;;;;;;4997627;28;20025;-75
2021/01/19 11:18:59;;;;;;;9.20;7.50;;;9.20;92.10;;;;;;4994297;28;20026;-75
2021/01/19 11:21:25;;;;;;;8.82;7.93;;;9.20;92.20;;;;;;4997832;28;20045;-76
2021/01/19 11:23:51;;;;;;;10.05;8.25;;;9.20;92.20;;;;;;4997779;28;20026;-75
2021/01/19 11:26:17;;;;;;;8.77;7.47;;;9.30;92.20;;;;;;4997710;28;20399;-76
2021/01/19 11:28:42;;;;;;;10.95;7.22;;;9.30;92.10;;;;;;4998015;28;20039;-76
2021/01/19 11:31:08;;;;;;;9.60;7.88;;;9.30;92.10;;;;;;4997342;28;20423;-76
2021/01/19 11:33:33;;;;;;;9.57;8.57;;;9.30;92.20;;;;;;4996900;28;20038;-75
2021/01/19 11:35:59;;;;;;;8.50;7.65;;;9.30;92.30;;;;;;4997068;28;20372;-76
2021/01/19 11:38:24;;;;;;;7.63;6.88;;;9.30;92.30;;;;;;4997019;28;20058;-76
2021/01/19 11:40:50;;;;;;;7.80;7.03;;;9.30;92.20;;;;;;4997255;28;20026;-76
2021/01/19 11:43:16;;;;;;;9.10;8.18;;;9.30;92.20;;;;;;4997094;28;20030;-76
2021/01/19 11:45:41;;;;;;;9.90;9.00;;;9.30;92.40;;;;;;4997046;28;20078;-76
2021/01/19 11:48:07;;;;;;;9.00;8.07;;;9.40;92.30;;;;;;4996936;28;20422;-76
2021/01/19 11:50:33;;;;;;;8.25;7.47;;;9.40;92.10;;;;;;4997078;28;20035;-76
2021/01/19 11:52:58;;;;;;;10.48;7.40;;;9.40;92.10;;;;;;4996904;28;20026;-76
2021/01/19 11:55:24;;;;;;;9.32;7.80;;;9.50;92.10;;;;;;4994588;28;20028;-76
2021/01/19 11:57:49;;;;;;;7.20;6.50;;;9.50;92.10;;;;;;4996758;28;20112;-75
2021/01/19 12:00:15;;;;;;;7.55;6.70;;;9.60;92.00;;;;;;4996560;28;20035;-76
2021/01/19 12:02:41;;;;;;;6.82;5.05;;;9.60;91.80;;;;;;4996338;28;20027;-76
2021/01/19 12:05:07;;;;;;;7.68;4.97;;;9.70;91.70;;;;;;4994252;28;20034;-78
2021/01/19 12:07:37;;;;;;;8.38;5.63;;;9.70;91.50;;;;;;4980089;28;20371;-77
2021/01/19 12:10:02;;;;;;;5.25;4.00;;;9.80;91.50;;;;;;4979235;28;20033;-76
2021/01/19 12:12:28;;;;;;;4.30;3.90;;;9.80;91.50;;;;;;4989361;28;20113;-76
2021/01/19 12:14:53;;;;;;;5.25;3.60;;;9.80;91.60;;;;;;4990471;28;20034;-83
2021/01/19 12:17:19;;;;;;;4.20;3.63;;;9.90;91.30;;;;;;4982642;28;20038;-78
2021/01/19 12:19:45;;;;;;;5.47;2.95;;;10.00;91.30;;;;;;4976206;28;20054;-76
2021/01/19 12:22:10;;;;;;;4.28;2.72;;;10.00;91.20;;;;;;4975268;28;20031;-76
2021/01/19 12:24:36;;;;;;;6.50;3.08;;;10.00;91.10;;;;;;4978320;28;20034;-76
2021/01/19 12:27:01;;;;;;;3.67;2.58;;;10.10;91.20;;;;;;4991167;28;20177;-76
2021/01/19 12:29:27;;;;;;;4.15;2.17;;;10.10;91.10;;;;;;4972386;28;20073;-77
2021/01/19 12:31:59;;;;;;;2.55;1.77;;;10.10;90.90;;;;;;4981901;28;20473;-76
2021/01/19 12:34:24;;;;;;;3.28;1.75;;;10.20;90.80;;;;;;4974544;28;20029;-76
2021/01/19 12:36:50;;;;;;;2.72;1.60;;;10.20;90.80;;;;;;4983068;28;20468;-76
2021/01/19 12:39:17;;;;;;;2.03;1.45;;;10.20;90.70;;;;;;4995229;28;20104;-76
2021/01/19 12:41:42;;;;;;;2.65;1.58;;;10.30;90.60;;;;;;4995557;28;20085;-77
2021/01/19 12:44:08;;;;;;;5.25;1.63;;;10.40;90.50;;;;;;4991314;28;20035;-76
2021/01/19 12:46:34;;;;;;;5.40;1.58;;;10.50;90.30;;;;;;4975753;28;20034;-77
2021/01/19 12:48:59;;;;;;;3.75;1.48;;;10.50;90.10;;;;;;4974725;28;20497;-76
2021/01/19 12:51:28;;;;;;;2.20;1.33;;;10.50;90.10;;;;;;4976072;28;20073;-76
2021/01/19 12:53:54;;;;;;;2.60;1.50;;;10.50;90.00;;;;;;4975975;28;20033;-77
2021/01/19 12:56:19;;;;;;;3.75;1.40;;;10.50;90.00;;;;;;4975515;28;20118;-76
2021/01/19 12:58:45;;;;;;;2.35;1.42;;;10.50;89.90;;;;;;4975135;28;20045;-77